Terminal Aerodrome Forecast
Issued by NWS Rapid City, SD

Home | Current Version | Previous Version | Graphics & Text | Print | Product List | Glossary On
Versions: 1 2 3 4 5 6 7 8 9 10 11 12 13 14 15 16 17 18 19 20 21 22 23 24
084
FTUS43 KUNR 082330
TAFRAP
TAF
KRAP 082330Z 0900/0924 04005KT P6SM SCT200
     FM090400 VRB04KT P6SM SCT200
     FM091000 12008KT P6SM BKN100
     FM091900 06008KT P6SM OVC030=

USA.gov is the U.S. government's official web portal to all federal, state and local government web resources and services.